createdAt,value
2018-10-02T00:02:10.914Z,77.10
2018-10-02T00:04:40.866Z,77.20
2018-10-02T00:07:10.435Z,76.80
2018-10-02T00:09:39.931Z,76.50
2018-10-02T00:12:14.553Z,76.70
2018-10-02T00:14:44.159Z,77.50
2018-10-02T00:17:13.703Z,77.60
2018-10-02T00:19:43.325Z,77.60
2018-10-02T00:22:12.770Z,78.10
2018-10-02T00:24:42.310Z,77.80
2018-10-02T00:27:13.357Z,77.30
2018-10-02T00:29:42.941Z,77.40
2018-10-02T00:32:12.680Z,77.80
2018-10-02T00:34:42.103Z,77.60
2018-10-02T00:37:11.519Z,77.90
2018-10-02T00:39:40.999Z,78.00
2018-10-02T00:42:11.246Z,78.30
2018-10-02T00:44:40.801Z,79.50
2018-10-02T00:47:10.276Z,79.00
2018-10-02T00:49:39.762Z,78.60
2018-10-02T00:52:10.927Z,78.30
2018-10-02T00:54:40.380Z,78.90
2018-10-02T00:57:09.892Z,78.70
2018-10-02T00:59:39.311Z,77.70
2018-10-02T01:02:09.573Z,77.50
2018-10-02T01:04:39.723Z,77.30
2018-10-02T01:07:10.297Z,77.30
2018-10-02T01:09:40.473Z,77.10
2018-10-02T01:12:09.915Z,76.70
2018-10-02T01:14:39.358Z,76.60
2018-10-02T01:17:08.813Z,77.30
2018-10-02T01:19:38.296Z,76.50
2018-10-02T01:22:07.709Z,76.50
2018-10-02T01:24:37.120Z,77.70
2018-10-02T01:27:06.632Z,78.90
2018-10-02T01:29:36.303Z,78.80
2018-10-02T01:32:05.703Z,78.40
2018-10-02T01:34:35.754Z,77.80
2018-10-02T01:37:05.115Z,78.20
2018-10-02T01:39:34.777Z,78.20
2018-10-02T01:42:04.193Z,78.20
2018-10-02T01:44:33.699Z,77.90
2018-10-02T01:47:03.107Z,77.10
2018-10-02T01:49:32.568Z,77.20
2018-10-02T01:52:02.022Z,77.90
2018-10-02T01:54:31.456Z,78.60
2018-10-02T01:57:00.885Z,78.00
2018-10-02T01:59:30.314Z,78.00
2018-10-02T02:01:59.809Z,77.90
2018-10-02T02:04:29.205Z,78.80
2018-10-02T02:06:58.601Z,78.30
2018-10-02T02:09:28.723Z,77.90
2018-10-02T02:11:59.680Z,77.90
2018-10-02T02:14:29.227Z,77.40
2018-10-02T02:16:59.933Z,78.50
2018-10-02T02:19:29.319Z,77.20
2018-10-02T02:21:59.903Z,78.20
2018-10-02T02:24:30.619Z,77.40
2018-10-02T02:27:00.225Z,77.30
2018-10-02T02:29:29.676Z,78.20
2018-10-02T02:31:59.951Z,79.50
2018-10-02T02:34:29.397Z,78.90
2018-10-02T02:36:58.840Z,79.80
2018-10-02T02:39:28.477Z,80.00
2018-10-02T02:41:57.968Z,79.50
2018-10-02T02:44:28.002Z,79.10
2018-10-02T02:47:01.881Z,78.90
2018-10-02T02:49:36.646Z,79.00
2018-10-02T02:52:06.187Z,78.40
2018-10-02T02:54:35.741Z,78.10
2018-10-02T02:57:06.841Z,77.80
2018-10-02T02:59:36.544Z,78.90
2018-10-02T03:02:05.966Z,77.30
2018-10-02T03:04:35.451Z,78.20
2018-10-02T03:07:04.923Z,78.20
2018-10-02T03:09:34.411Z,77.50
2018-10-02T03:12:03.868Z,77.30
2018-10-02T03:14:33.281Z,76.60
2018-10-02T03:17:02.874Z,76.00
2018-10-02T03:19:32.979Z,76.80
2018-10-02T03:22:03.307Z,76.80
2018-10-02T03:24:32.713Z,76.90
2018-10-02T03:27:02.408Z,76.90
2018-10-02T03:29:32.081Z,76.70
2018-10-02T03:32:01.576Z,76.80
2018-10-02T03:34:31.001Z,77.10
2018-10-02T03:37:00.493Z,77.70
2018-10-02T03:39:30.759Z,77.90
2018-10-02T03:42:00.201Z,77.50
2018-10-02T03:44:29.651Z,77.60
2018-10-02T03:46:59.096Z,77.60
2018-10-02T03:49:28.501Z,78.10
2018-10-02T03:51:57.917Z,78.30
2018-10-02T03:54:28.120Z,78.30
2018-10-02T03:56:57.775Z,77.90
2018-10-02T03:59:27.204Z,77.50
2018-10-02T04:01:56.632Z,77.30
2018-10-02T04:04:26.014Z,77.70
2018-10-02T04:06:55.476Z,77.40
2018-10-02T04:09:24.934Z,77.50
2018-10-02T04:11:54.340Z,77.80
2018-10-02T04:14:23.783Z,78.40
2018-10-02T04:16:53.252Z,78.10
2018-10-02T04:19:22.725Z,78.50
2018-10-02T04:21:52.142Z,78.40
2018-10-02T04:24:21.557Z,78.70
2018-10-02T04:26:50.961Z,79.60
2018-10-02T04:29:20.405Z,79.90
2018-10-02T04:31:49.819Z,80.50
2018-10-02T04:34:19.340Z,79.90
2018-10-02T04:36:48.743Z,79.60
2018-10-02T04:39:18.194Z,79.80
2018-10-02T04:41:47.667Z,79.50
2018-10-02T04:44:17.134Z,80.30
2018-10-02T04:46:46.865Z,79.80
2018-10-02T04:49:16.359Z,79.70
2018-10-02T04:51:45.776Z,80.10
2018-10-02T04:54:15.245Z,79.60
2018-10-02T04:56:44.691Z,81.00
2018-10-02T04:59:14.170Z,80.90
2018-10-02T05:01:43.601Z,81.00
2018-10-02T05:04:13.055Z,81.00
2018-10-02T05:06:42.447Z,81.50
2018-10-02T05:09:12.016Z,81.20
2018-10-02T05:11:41.494Z,81.00
2018-10-02T05:14:11.067Z,81.70
2018-10-02T05:16:40.463Z,81.90
2018-10-02T05:19:09.907Z,82.70
2018-10-02T05:21:39.375Z,82.70
2018-10-02T05:24:08.828Z,82.20
2018-10-02T05:26:38.293Z,81.70
2018-10-02T05:29:07.728Z,81.50
2018-10-02T05:31:37.142Z,81.80
2018-10-02T05:34:06.837Z,81.30
2018-10-02T05:36:36.400Z,81.20
2018-10-02T05:39:07.540Z,81.60
2018-10-02T05:41:37.028Z,82.00
2018-10-02T05:44:06.479Z,81.60
2018-10-02T05:46:35.901Z,81.70
2018-10-02T05:49:05.362Z,81.30
2018-10-02T05:51:34.920Z,81.50
2018-10-02T05:54:04.387Z,81.10
2018-10-02T05:56:33.870Z,81.30
2018-10-02T05:59:03.375Z,81.30
2018-10-02T06:01:32.885Z,81.30
2018-10-02T06:04:02.331Z,81.30
2018-10-02T06:06:31.781Z,81.30
2018-10-02T06:09:01.257Z,81.30
2018-10-02T06:11:30.708Z,81.50
2018-10-02T06:14:00.156Z,81.40
2018-10-02T06:16:29.596Z,81.40
2018-10-02T06:18:59.022Z,81.40
2018-10-02T06:21:28.727Z,81.50
2018-10-02T06:23:58.155Z,81.60
2018-10-02T06:26:27.586Z,81.60
2018-10-02T06:28:57.261Z,81.60
2018-10-02T06:31:26.723Z,81.50
2018-10-02T06:33:56.172Z,81.60
2018-10-02T06:36:25.616Z,81.60
2018-10-02T06:38:55.905Z,81.80
2018-10-02T06:41:25.321Z,81.90
2018-10-02T06:43:54.765Z,82.10
2018-10-02T06:46:24.383Z,82.30
2018-10-02T06:48:53.875Z,82.50
2018-10-02T06:51:24.227Z,82.80
2018-10-02T06:53:53.467Z,82.60
2018-10-02T06:56:22.920Z,83.60
2018-10-02T06:58:52.385Z,82.90
2018-10-02T07:01:21.781Z,83.30
2018-10-02T07:03:51.196Z,82.90
2018-10-02T07:06:20.786Z,82.70
2018-10-02T07:08:51.355Z,83.30
2018-10-02T07:11:21.084Z,83.20
2018-10-02T07:13:50.500Z,82.70
2018-10-02T07:16:19.994Z,83.20
2018-10-02T07:18:49.516Z,83.00
2018-10-02T07:21:18.951Z,83.60
2018-10-02T07:23:48.394Z,82.90
2018-10-02T07:26:17.903Z,83.10
2018-10-02T07:28:47.279Z,83.20
2018-10-02T07:31:16.729Z,83.00
2018-10-02T07:33:46.290Z,82.50
2018-10-02T07:36:16.805Z,82.60
2018-10-02T07:38:46.212Z,82.90
2018-10-02T07:41:15.851Z,82.60
2018-10-02T07:43:45.359Z,83.30
2018-10-02T07:46:14.799Z,82.60
2018-10-02T07:48:44.338Z,83.20
2018-10-02T07:51:13.822Z,83.80
2018-10-02T07:53:43.331Z,83.80
2018-10-02T07:56:12.715Z,83.00
2018-10-02T07:58:42.279Z,82.80
2018-10-02T08:01:11.711Z,82.90
2018-10-02T08:03:41.220Z,82.90
2018-10-02T08:06:10.854Z,84.00
2018-10-02T08:08:40.315Z,82.90
2018-10-02T08:11:10.076Z,82.90
2018-10-02T08:13:39.518Z,82.90
2018-10-02T08:16:09.122Z,83.00
2018-10-02T08:18:38.639Z,83.00
2018-10-02T08:21:08.127Z,82.30
2018-10-02T08:23:37.593Z,83.10
2018-10-02T08:26:06.997Z,83.10
2018-10-02T08:28:36.558Z,82.20
2018-10-02T08:31:06.046Z,82.20
2018-10-02T08:33:35.531Z,81.80
2018-10-02T08:36:05.123Z,82.00
2018-10-02T08:38:34.538Z,81.90
2018-10-02T08:41:04.010Z,82.00
2018-10-02T08:43:33.646Z,81.80
2018-10-02T08:46:03.064Z,82.50
2018-10-02T08:48:32.562Z,81.90
2018-10-02T08:51:02.135Z,81.20
2018-10-02T08:53:31.998Z,81.90
2018-10-02T08:56:01.403Z,82.30
2018-10-02T08:58:30.819Z,81.20
2018-10-02T09:01:00.378Z,81.10
2018-10-02T09:03:29.809Z,80.70
2018-10-02T09:05:59.226Z,80.80
2018-10-02T09:08:28.761Z,80.50
2018-10-02T09:10:58.194Z,79.60
2018-10-02T09:13:29.437Z,79.30
2018-10-02T09:15:59.063Z,79.20
2018-10-02T09:18:28.489Z,79.50
2018-10-02T09:20:57.939Z,79.40
2018-10-02T09:23:27.454Z,79.20
2018-10-02T09:25:57.412Z,79.00
2018-10-02T09:28:26.925Z,77.90
2018-10-02T09:31:01.581Z,77.90
2018-10-02T09:33:36.690Z,77.20
2018-10-02T09:36:12.462Z,77.20
2018-10-02T09:38:47.462Z,77.30
2018-10-02T09:41:22.273Z,77.50
2018-10-02T09:43:53.853Z,77.40
2018-10-02T09:46:24.102Z,76.60
2018-10-02T09:48:53.542Z,76.90
2018-10-02T09:51:23.426Z,76.40
2018-10-02T09:53:52.889Z,76.50
2018-10-02T09:56:25.029Z,75.70
2018-10-02T09:58:54.799Z,76.00
2018-10-02T10:01:29.394Z,75.20
2018-10-02T10:03:58.848Z,75.20
2018-10-02T10:06:28.672Z,75.30
2018-10-02T10:08:58.117Z,75.30
2018-10-02T10:11:27.581Z,75.30
2018-10-02T10:13:57.067Z,73.60
2018-10-02T10:16:26.552Z,75.00
2018-10-02T10:18:56.045Z,73.20
2018-10-02T10:21:25.475Z,73.60
2018-10-02T10:23:54.970Z,73.60
2018-10-02T10:26:24.471Z,73.40
2018-10-02T10:28:53.893Z,72.90
2018-10-02T10:31:23.362Z,73.30
2018-10-02T10:33:52.819Z,72.90
2018-10-02T10:36:22.352Z,72.40
2018-10-02T10:38:51.821Z,69.50
2018-10-02T10:41:21.507Z,71.20
2018-10-02T10:43:50.964Z,71.40
2018-10-02T10:46:20.385Z,69.10
2018-10-02T10:48:49.774Z,70.40
2018-10-02T10:51:20.159Z,68.50
2018-10-02T10:53:49.744Z,69.80
2018-10-02T10:56:20.118Z,69.70
2018-10-02T10:58:49.645Z,69.50
2018-10-02T11:01:19.210Z,69.60
2018-10-02T11:03:48.638Z,67.50
2018-10-02T11:06:18.080Z,68.70
2018-10-02T11:08:48.565Z,68.00
2018-10-02T11:11:19.405Z,67.00
2018-10-02T11:13:49.611Z,66.70
2018-10-02T11:16:20.510Z,66.80
2018-10-02T11:18:50.663Z,66.70
2018-10-02T11:21:20.046Z,67.90
2018-10-02T11:23:49.572Z,67.00
2018-10-02T11:26:19.000Z,67.70
2018-10-02T11:28:48.470Z,66.10
2018-10-02T11:31:17.957Z,66.10
2018-10-02T11:33:47.361Z,66.10
2018-10-02T11:36:16.815Z,65.00
2018-10-02T11:38:46.249Z,65.20
2018-10-02T11:41:15.873Z,66.10
2018-10-02T11:43:45.869Z,65.90
2018-10-02T11:46:17.970Z,65.40
2018-10-02T11:48:48.856Z,65.50
2018-10-02T11:51:18.396Z,66.10
2018-10-02T11:53:47.805Z,64.10
2018-10-02T11:56:18.440Z,63.40
2018-10-02T11:58:48.063Z,63.70
2018-10-02T12:01:17.620Z,63.60
2018-10-02T12:03:47.115Z,63.80
2018-10-02T12:06:17.911Z,62.50
2018-10-02T12:08:47.430Z,62.00
2018-10-02T12:11:18.881Z,62.40
2018-10-02T12:13:48.355Z,61.80
2018-10-02T12:16:18.038Z,60.90
2018-10-02T12:18:48.873Z,60.50
2018-10-02T12:21:18.954Z,60.40
2018-10-02T12:23:48.418Z,59.80
2018-10-02T12:26:18.237Z,56.40
2018-10-02T12:28:47.910Z,56.70
2018-10-02T12:31:17.681Z,57.00
2018-10-02T12:33:51.363Z,55.10
2018-10-02T12:36:21.891Z,50.90
2018-10-02T12:38:51.365Z,52.10
2018-10-02T12:41:21.218Z,51.40
2018-10-02T12:43:50.784Z,50.50
2018-10-02T12:46:20.229Z,50.90
2018-10-02T12:48:49.620Z,50.40
2018-10-02T12:51:19.298Z,52.40
2018-10-02T12:53:49.728Z,52.30
2018-10-02T12:56:19.176Z,52.80
2018-10-02T12:58:48.670Z,51.70
2018-10-02T13:01:18.179Z,52.70
2018-10-02T13:03:47.656Z,53.00
2018-10-02T13:06:17.093Z,54.20
2018-10-02T13:08:46.547Z,54.70
2018-10-02T13:11:16.042Z,54.50
2018-10-02T13:13:45.967Z,55.30
2018-10-02T13:16:16.354Z,56.00
2018-10-02T13:18:45.880Z,56.30
2018-10-02T13:21:15.415Z,56.70
2018-10-02T13:23:44.901Z,56.70
2018-10-02T13:26:14.682Z,56.70
2018-10-02T13:28:44.185Z,57.30
2018-10-02T13:31:14.503Z,57.90
2018-10-02T13:33:44.062Z,59.00
2018-10-02T13:36:13.487Z,60.00
2018-10-02T13:38:42.953Z,60.50
2018-10-02T13:41:13.050Z,61.90
2018-10-02T13:43:43.709Z,63.20
2018-10-02T13:46:13.160Z,64.80
2018-10-02T13:48:42.578Z,64.20
2018-10-02T13:51:13.057Z,65.50
2018-10-02T13:53:42.531Z,66.30
2018-10-02T13:56:12.038Z,66.40
2018-10-02T13:58:41.574Z,66.20
2018-10-02T14:01:11.733Z,67.60
2018-10-02T14:03:41.252Z,68.20
2018-10-02T14:06:10.728Z,67.80
2018-10-02T14:08:40.441Z,67.90
2018-10-02T14:11:10.724Z,68.90
2018-10-02T14:13:41.172Z,68.90
2018-10-02T14:16:10.616Z,68.90
2018-10-02T14:18:40.942Z,69.20
2018-10-02T14:21:10.352Z,69.30
2018-10-02T14:23:40.358Z,70.00
2018-10-02T14:26:09.815Z,70.10
2018-10-02T14:28:39.286Z,72.20
2018-10-02T14:31:09.246Z,71.20
2018-10-02T14:33:38.670Z,70.60
2018-10-02T14:36:08.263Z,70.70
2018-10-02T14:38:38.324Z,71.70
2018-10-02T14:41:07.787Z,71.70
2018-10-02T14:43:38.313Z,71.50
2018-10-02T14:46:11.071Z,73.00
2018-10-02T14:48:41.211Z,72.30
2018-10-02T14:51:10.690Z,73.30
2018-10-02T14:53:40.464Z,73.00
2018-10-02T14:56:12.463Z,72.80
2018-10-02T14:58:43.751Z,73.60
2018-10-02T15:01:13.435Z,73.30
2018-10-02T15:03:43.792Z,74.00
2018-10-02T15:06:15.332Z,74.40
2018-10-02T15:08:46.133Z,74.30
2018-10-02T15:11:15.670Z,75.00
2018-10-02T15:13:45.252Z,75.80
2018-10-02T15:16:15.723Z,74.80
2018-10-02T15:18:45.452Z,74.30
2018-10-02T15:21:15.986Z,76.20
2018-10-02T15:23:46.177Z,74.80
2018-10-02T15:26:16.614Z,76.20
2018-10-02T15:28:47.287Z,75.50
2018-10-02T15:31:18.182Z,75.90
2018-10-02T15:33:48.850Z,75.90
2018-10-02T15:36:20.368Z,76.20
2018-10-02T15:38:51.037Z,77.10
2018-10-02T15:41:21.565Z,76.30
2018-10-02T15:43:51.065Z,77.00
2018-10-02T15:46:22.563Z,75.70
2018-10-02T15:48:52.228Z,75.50
2018-10-02T15:51:21.740Z,76.30
2018-10-02T15:53:52.039Z,75.90
2018-10-02T15:56:21.476Z,76.20
2018-10-02T15:58:50.969Z,76.20
2018-10-02T16:01:20.492Z,76.50
2018-10-02T16:03:50.334Z,76.40
2018-10-02T16:06:19.822Z,75.00
2018-10-02T16:08:49.246Z,76.20
2018-10-02T16:11:18.709Z,76.20
2018-10-02T16:13:48.972Z,76.30
2018-10-02T16:16:18.594Z,76.60
2018-10-02T16:18:48.301Z,76.60
2018-10-02T16:21:19.168Z,76.60
2018-10-02T16:23:49.031Z,76.90
2018-10-02T16:26:19.294Z,76.80
2018-10-02T16:28:50.209Z,76.80
2018-10-02T16:31:19.636Z,78.10
2018-10-02T16:33:49.170Z,76.30
2018-10-02T16:36:19.001Z,78.20
2018-10-02T16:38:49.546Z,77.40
2018-10-02T16:41:18.971Z,78.30
2018-10-02T16:43:48.523Z,78.10
2018-10-02T16:46:18.127Z,78.40
2018-10-02T16:48:47.641Z,78.50
2018-10-02T16:51:17.094Z,78.60
2018-10-02T16:53:46.696Z,78.20
2018-10-02T16:56:16.757Z,78.70
2018-10-02T16:58:46.300Z,78.40
2018-10-02T17:01:15.799Z,79.60
2018-10-02T17:03:45.321Z,79.00
2018-10-02T17:06:14.806Z,79.00
2018-10-02T17:08:44.221Z,78.90
2018-10-02T17:11:14.039Z,79.20
2018-10-02T17:13:43.495Z,79.60
2018-10-02T17:16:12.974Z,79.30
2018-10-02T17:18:42.466Z,79.30
2018-10-02T17:21:11.985Z,79.40
2018-10-02T17:23:41.533Z,80.00
2018-10-02T17:26:10.977Z,80.10
2018-10-02T17:28:40.542Z,80.00
2018-10-02T17:31:09.984Z,80.20
2018-10-02T17:33:39.443Z,80.00
2018-10-02T17:36:08.889Z,79.60
2018-10-02T17:38:38.638Z,79.90
2018-10-02T17:41:08.588Z,79.70
2018-10-02T17:43:38.302Z,79.80
2018-10-02T17:46:08.106Z,79.90
2018-10-02T17:48:37.541Z,79.90
2018-10-02T17:51:06.999Z,79.90
2018-10-02T17:53:36.449Z,80.50
2018-10-02T17:56:05.889Z,80.60
2018-10-02T17:58:35.319Z,80.50
2018-10-02T18:01:04.842Z,81.00
2018-10-02T18:03:34.694Z,81.00
2018-10-02T18:06:04.204Z,81.10
2018-10-02T18:08:33.766Z,81.20
2018-10-02T18:11:03.291Z,81.10
2018-10-02T18:13:32.727Z,81.20
2018-10-02T18:16:03.158Z,81.30
2018-10-02T18:18:34.835Z,81.00
2018-10-02T18:21:05.587Z,81.10
2018-10-02T18:23:36.837Z,81.20
2018-10-02T18:26:06.829Z,81.00
2018-10-02T18:28:36.554Z,81.30
2018-10-02T18:31:06.383Z,81.20
2018-10-02T18:33:36.905Z,81.40
2018-10-02T18:36:06.454Z,82.00
2018-10-02T18:38:36.271Z,82.30
2018-10-02T18:41:06.430Z,82.50
2018-10-02T18:43:37.202Z,83.40
2018-10-02T18:46:06.641Z,82.90
2018-10-02T18:48:36.286Z,83.50
2018-10-02T18:51:06.175Z,83.60
2018-10-02T18:53:35.848Z,83.90
2018-10-02T18:56:06.062Z,83.60
2018-10-02T18:58:35.493Z,84.30
2018-10-02T19:01:05.907Z,83.90
2018-10-02T19:03:35.424Z,83.90
2018-10-02T19:06:06.457Z,83.60
2018-10-02T19:09:43.869Z,84.10
2018-10-02T19:12:18.099Z,83.60
2018-10-02T19:14:47.773Z,84.10
2018-10-02T19:17:18.537Z,84.90
2018-10-02T19:19:53.656Z,85.30
2018-10-02T19:22:23.104Z,84.30
2018-10-02T19:24:52.753Z,84.30
2018-10-02T19:27:23.245Z,85.00
2018-10-02T19:29:58.096Z,84.30
2018-10-02T19:32:28.466Z,84.90
2018-10-02T19:34:57.849Z,83.70
2018-10-02T19:37:32.687Z,83.70
2018-10-02T19:40:03.339Z,83.70
2018-10-02T19:42:33.474Z,84.00
2018-10-02T19:45:08.344Z,83.70
2018-10-02T19:47:38.521Z,83.70
2018-10-02T19:50:08.531Z,84.30
2018-10-02T19:52:38.529Z,83.70
2018-10-02T19:55:08.684Z,83.70
2018-10-02T19:57:38.846Z,84.30
2018-10-02T20:00:08.350Z,85.00
2018-10-02T20:02:37.823Z,83.90
2018-10-02T20:05:07.442Z,83.70
2018-10-02T20:07:36.893Z,83.90
2018-10-02T20:10:06.392Z,84.00
2018-10-02T20:12:36.137Z,84.50
2018-10-02T20:15:05.664Z,84.30
2018-10-02T20:17:35.140Z,84.20
2018-10-02T20:20:04.598Z,83.80
2018-10-02T20:22:34.052Z,84.40
2018-10-02T20:25:03.472Z,83.90
2018-10-02T20:27:32.908Z,83.70
2018-10-02T20:30:02.309Z,83.70
2018-10-02T20:32:31.808Z,83.70
2018-10-02T20:35:01.298Z,83.70
2018-10-02T20:37:30.718Z,83.80
2018-10-02T20:40:00.104Z,83.70
2018-10-02T20:42:29.825Z,83.70
2018-10-02T20:44:59.300Z,83.70
2018-10-02T20:47:28.730Z,83.70
2018-10-02T20:49:58.181Z,83.70
2018-10-02T20:52:27.621Z,83.70
2018-10-02T20:54:57.082Z,83.70
2018-10-02T20:57:26.533Z,83.70
2018-10-02T20:59:56.017Z,83.70
2018-10-02T21:02:25.454Z,83.80
2018-10-02T21:04:54.924Z,83.70
2018-10-02T21:07:24.333Z,84.00
2018-10-02T21:09:53.752Z,83.70
2018-10-02T21:12:23.136Z,83.80
2018-10-02T21:14:52.535Z,84.90
2018-10-02T21:17:22.048Z,84.40
2018-10-02T21:19:51.483Z,83.70
2018-10-02T21:22:20.963Z,83.70
2018-10-02T21:24:50.479Z,84.50
2018-10-02T21:27:19.934Z,83.70
2018-10-02T21:29:49.399Z,83.70
2018-10-02T21:32:18.807Z,83.70
2018-10-02T21:34:48.265Z,83.70
2018-10-02T21:37:17.934Z,83.10
2018-10-02T21:39:47.479Z,83.70
2018-10-02T21:42:16.938Z,83.70
2018-10-02T21:44:46.355Z,83.70
2018-10-02T21:47:15.761Z,83.10
2018-10-02T21:49:45.224Z,83.10
2018-10-02T21:52:14.649Z,82.90
2018-10-02T21:54:44.076Z,83.20
2018-10-02T21:57:13.586Z,83.10
2018-10-02T21:59:42.991Z,83.00
2018-10-02T22:02:12.458Z,83.00
2018-10-02T22:04:42.093Z,83.10
2018-10-02T22:07:11.571Z,82.50
2018-10-02T22:09:41.024Z,82.70
2018-10-02T22:12:10.406Z,82.80
2018-10-02T22:14:39.859Z,83.30
2018-10-02T22:17:09.264Z,82.50
2018-10-02T22:19:38.696Z,82.70
2018-10-02T22:22:08.217Z,82.10
2018-10-02T22:24:37.623Z,82.10
2018-10-02T22:27:07.062Z,81.70
2018-10-02T22:29:36.737Z,81.60
2018-10-02T22:32:06.202Z,81.60
2018-10-02T22:34:35.652Z,81.50
2018-10-02T22:37:05.155Z,81.60
2018-10-02T22:39:34.556Z,81.70
2018-10-02T22:42:03.991Z,82.10
2018-10-02T22:44:33.549Z,82.00
2018-10-02T22:47:02.955Z,81.90
2018-10-02T22:49:32.372Z,82.30
2018-10-02T22:52:01.850Z,82.40
2018-10-02T22:54:31.286Z,82.40
2018-10-02T22:57:00.720Z,82.50
2018-10-02T22:59:30.392Z,82.40
2018-10-02T23:01:59.876Z,82.90
2018-10-02T23:04:29.314Z,83.10
2018-10-02T23:06:58.705Z,83.10
2018-10-02T23:09:28.130Z,83.30
2018-10-02T23:11:57.548Z,83.60
2018-10-02T23:14:26.987Z,83.60
2018-10-02T23:16:56.398Z,83.60
2018-10-02T23:19:25.822Z,83.60
2018-10-02T23:21:55.261Z,83.60
2018-10-02T23:24:24.794Z,83.60
2018-10-02T23:26:54.231Z,83.60
2018-10-02T23:29:23.686Z,83.60
2018-10-02T23:31:53.183Z,83.60
2018-10-02T23:34:22.577Z,83.70
2018-10-02T23:36:52.152Z,83.60
2018-10-02T23:39:21.645Z,83.60
2018-10-02T23:41:51.096Z,83.60
2018-10-02T23:44:20.535Z,83.60
2018-10-02T23:46:49.996Z,83.60
2018-10-02T23:49:19.414Z,83.70
2018-10-02T23:51:48.841Z,83.60
2018-10-02T23:54:18.297Z,83.70
2018-10-02T23:56:47.811Z,83.70
2018-10-02T23:59:17.547Z,83.90
